Time;durP1;ratioP1;P1;durP2;ratioP2;P2;SDS_P1;SDS_P2;PMS_P1;PMS_P2;Temp;Humidity;BMP_temperature;BMP_pressure;BME280_temperature;BME280_humidity;BME280_pressure;Samples;Min_cycle;Max_cycle;Signal;HPM_P1;HPM_P2
2020/12/25 00:01:06;;;;;;;0.05;0.05;;;3.50;99.90;;;;;;5033424;28;20029;-86
2020/12/25 00:03:32;;;;;;;0.13;0.13;;;3.60;99.90;;;;;;5036303;28;20021;-85
2020/12/25 00:05:58;;;;;;;0.20;0.20;;;3.60;99.90;;;;;;5038975;28;20029;-83
2020/12/25 00:08:23;;;;;;;0.20;0.20;;;3.70;99.90;;;;;;5034676;28;20025;-87
2020/12/25 00:10:53;;;;;;;0.87;0.20;;;3.70;99.90;;;;;;5033607;28;20041;-87
2020/12/25 00:13:18;;;;;;;0.08;0.08;;;3.70;99.90;;;;;;5033344;28;20029;-88
2020/12/25 00:15:47;;;;;;;0.00;0.00;;;3.70;99.90;;;;;;5035272;28;20022;-88
2020/12/25 00:18:13;;;;;;;0.10;0.10;;;3.70;99.90;;;;;;5035148;28;20313;-87
2020/12/25 00:20:38;;;;;;;0.45;0.45;;;3.70;99.90;;;;;;5034061;28;20029;-86
2020/12/25 00:23:04;;;;;;;0.00;0.00;;;3.80;99.90;;;;;;5035165;28;20424;-85
2020/12/25 00:25:30;;;;;;;0.00;0.00;;;3.80;99.90;;;;;;5050439;28;20120;-85
2020/12/25 00:27:56;;;;;;;0.10;0.10;;;3.90;99.90;;;;;;5027855;28;20018;-85
2020/12/25 00:30:22;;;;;;;0.00;0.00;;;3.90;99.90;;;;;;5033894;28;20017;-89
2020/12/25 00:32:47;;;;;;;0.00;0.00;;;4.00;99.90;;;;;;5034434;28;20040;-83
2020/12/25 00:35:13;;;;;;;0.07;0.07;;;4.00;99.90;;;;;;5033932;28;20025;-87
2020/12/25 00:37:39;;;;;;;0.10;0.10;;;4.10;99.90;;;;;;5035007;28;20093;-83
2020/12/25 00:40:04;;;;;;;0.10;0.10;;;4.00;99.90;;;;;;5034143;28;20021;-80
2020/12/25 00:42:30;;;;;;;0.10;0.10;;;4.00;99.90;;;;;;5033659;28;20033;-84
2020/12/25 00:44:56;;;;;;;0.20;0.20;;;3.90;99.90;;;;;;5034475;28;20032;-83
2020/12/25 00:47:22;;;;;;;0.10;0.10;;;3.80;99.90;;;;;;5050009;28;20033;-84
2020/12/25 00:49:47;;;;;;;0.30;0.30;;;3.70;99.90;;;;;;5034721;28;20044;-87
2020/12/25 00:52:13;;;;;;;0.10;0.10;;;3.60;99.90;;;;;;5034956;28;20022;-87
2020/12/25 00:54:39;;;;;;;1.20;0.70;;;3.60;99.90;;;;;;5034383;28;20069;-86
2020/12/25 00:57:04;;;;;;;0.00;0.00;;;3.60;99.90;;;;;;5035301;28;20018;-85
2020/12/25 00:59:30;;;;;;;0.03;0.03;;;3.60;99.90;;;;;;5033460;28;20120;-87
2020/12/25 01:01:56;;;;;;;0.10;0.10;;;3.60;99.90;;;;;;5023342;28;20030;-85
2020/12/25 01:04:21;;;;;;;0.00;0.00;;;3.60;99.90;;;;;;5035781;28;20033;-85
2020/12/25 01:06:47;;;;;;;2.70;0.20;;;3.60;99.90;;;;;;5023400;28;20305;-86
2020/12/25 01:09:13;;;;;;;0.10;0.10;;;3.60;99.90;;;;;;5038200;28;20033;-87
2020/12/25 01:11:40;;;;;;;0.00;0.00;;;3.50;99.90;;;;;;5037219;28;20028;-85
2020/12/25 01:14:06;;;;;;;;;;;3.50;99.90;;;;;;5039004;28;20029;-89
2020/12/25 01:16:31;;;;;;;0.28;0.28;;;3.50;99.90;;;;;;5039988;28;19909;-87
2020/12/25 01:18:57;;;;;;;0.10;0.10;;;3.50;99.90;;;;;;5054904;28;20025;-88
2020/12/25 01:21:23;;;;;;;0.10;0.10;;;3.40;99.90;;;;;;5039038;28;20084;-87
2020/12/25 01:23:49;;;;;;;0.03;0.03;;;3.50;99.90;;;;;;5037981;28;20022;-92
2020/12/25 01:26:14;;;;;;;0.00;0.00;;;3.50;99.90;;;;;;5039521;28;20018;-92
2020/12/25 01:28:40;;;;;;;0.00;0.00;;;3.60;99.90;;;;;;5031890;28;20105;-91
2020/12/25 01:31:06;;;;;;;0.10;0.10;;;3.70;99.90;;;;;;5030085;28;20024;-92
2020/12/25 01:33:35;;;;;;;0.00;0.00;;;3.70;99.90;;;;;;5034183;28;20053;-93
2020/12/25 01:36:04;;;;;;;0.00;0.00;;;3.70;99.90;;;;;;5038219;28;20324;-92
2020/12/25 01:38:30;;;;;;;0.10;0.10;;;3.70;99.90;;;;;;5038216;28;20032;-86
2020/12/25 01:40:56;;;;;;;0.00;0.00;;;3.80;99.90;;;;;;5029347;28;20026;-90
2020/12/25 01:43:22;;;;;;;0.00;0.00;;;3.90;99.90;;;;;;5035092;28;20274;-92
2020/12/25 01:45:47;;;;;;;4.50;1.10;;;3.90;99.90;;;;;;5037132;28;20076;-91
2020/12/25 01:48:13;;;;;;;0.10;0.10;;;3.80;99.90;;;;;;5037953;28;20038;-94
2020/12/25 01:50:40;;;;;;;0.00;0.00;;;3.70;99.90;;;;;;5054058;28;20032;-92
2020/12/25 01:53:08;;;;;;;0.55;0.55;;;3.50;99.90;;;;;;5031391;28;20081;-91
2020/12/25 01:55:36;;;;;;;0.00;0.00;;;3.40;99.90;;;;;;5030380;28;20428;-93
2020/12/25 01:58:03;;;;;;;0.10;0.10;;;3.50;99.90;;;;;;5037269;28;20041;-91
2020/12/25 02:00:29;;;;;;;;;;;3.50;99.90;;;;;;5038015;28;20021;-90
2020/12/25 02:02:55;;;;;;;0.22;0.22;;;3.50;99.90;;;;;;5038280;28;20000;-93
2020/12/25 02:05:21;;;;;;;0.10;0.10;;;3.70;99.90;;;;;;5037093;28;20120;-91
2020/12/25 02:07:47;;;;;;;0.00;0.00;;;3.80;99.90;;;;;;5034761;28;20097;-92
2020/12/25 02:10:14;;;;;;;3.67;0.73;;;3.90;99.90;;;;;;5035748;28;20124;-92
2020/12/25 02:12:40;;;;;;;0.00;0.00;;;4.00;99.90;;;;;;5029462;28;20116;-89
2020/12/25 02:15:07;;;;;;;0.00;0.00;;;4.00;99.90;;;;;;5036311;28;20026;-92
2020/12/25 02:17:33;;;;;;;0.52;0.15;;;4.00;99.90;;;;;;5038089;28;20022;-92
2020/12/25 02:20:02;;;;;;;0.27;0.27;;;4.00;99.90;;;;;;5053402;28;20538;-91
2020/12/25 02:22:28;;;;;;;3.10;0.50;;;3.90;99.90;;;;;;5037561;28;20028;-92
2020/12/25 02:24:54;;;;;;;0.52;0.13;;;3.80;99.90;;;;;;5038219;28;20039;-88
2020/12/25 02:27:19;;;;;;;0.10;0.10;;;3.60;99.90;;;;;;5045246;28;20029;-92
2020/12/25 02:29:45;;;;;;;0.10;0.10;;;3.20;99.90;;;;;;5037559;28;20025;-94
2020/12/25 02:32:11;;;;;;;0.00;0.00;;;3.00;99.90;;;;;;5037438;28;20021;-91
2020/12/25 02:34:36;;;;;;;0.23;0.23;;;2.90;99.90;;;;;;5036941;28;20320;-90
2020/12/25 02:37:02;;;;;;;0.10;0.10;;;2.80;99.90;;;;;;5023265;28;20029;-94
2020/12/25 02:39:28;;;;;;;2.23;0.47;;;2.60;99.90;;;;;;5023059;28;20411;-92
2020/12/25 02:41:54;;;;;;;0.10;0.10;;;2.60;99.90;;;;;;5037243;28;20055;-95
2020/12/25 02:44:19;;;;;;;0.10;0.10;;;2.40;99.90;;;;;;5051639;28;20025;-92
2020/12/25 02:46:47;;;;;;;0.10;0.10;;;2.30;99.90;;;;;;5036850;28;20033;-93
2020/12/25 02:49:12;;;;;;;0.10;0.10;;;2.20;99.90;;;;;;5031918;28;20083;-94
2020/12/25 02:51:38;;;;;;;0.10;0.10;;;2.20;99.90;;;;;;5036727;28;20033;-93
2020/12/25 02:54:04;;;;;;;0.00;0.00;;;2.10;99.90;;;;;;5037175;28;20042;-94
2020/12/25 02:56:29;;;;;;;0.10;0.10;;;2.10;99.90;;;;;;5037467;28;20029;-93
2020/12/25 02:58:55;;;;;;;0.10;0.10;;;2.10;99.90;;;;;;5038008;28;20032;-94
2020/12/25 03:01:21;;;;;;;0.27;0.27;;;2.10;99.90;;;;;;5037255;28;20093;-92
2020/12/25 03:03:46;;;;;;;0.10;0.10;;;2.10;99.90;;;;;;5022559;28;20435;-91
2020/12/25 03:06:12;;;;;;;0.07;0.07;;;2.00;99.90;;;;;;5036851;28;20324;-90
2020/12/25 03:08:38;;;;;;;0.10;0.10;;;2.00;99.90;;;;;;5037332;28;20144;-91
2020/12/25 03:11:04;;;;;;;0.87;0.83;;;2.10;99.90;;;;;;5035949;28;20029;-91
2020/12/25 03:13:30;;;;;;;1.00;1.00;;;2.30;99.90;;;;;;5029630;28;20025;-94
2020/12/25 03:15:56;;;;;;;0.13;0.13;;;2.40;99.90;;;;;;5036358;28;20435;-94
2020/12/25 03:18:22;;;;;;;0.10;0.10;;;2.30;99.90;;;;;;5044333;28;20021;-93
2020/12/25 03:20:48;;;;;;;0.20;0.20;;;2.20;99.90;;;;;;5033422;28;20025;-95
2020/12/25 03:23:14;;;;;;;0.20;0.20;;;2.10;99.90;;;;;;5036363;28;20328;-94
2020/12/25 03:25:40;;;;;;;0.10;0.10;;;2.10;99.90;;;;;;5037567;28;20339;-92
2020/12/25 03:28:06;;;;;;;0.40;0.40;;;2.10;99.90;;;;;;5036073;28;20032;-94
2020/12/25 03:30:32;;;;;;;0.10;0.10;;;2.00;99.90;;;;;;5037119;28;20025;-94
2020/12/25 03:32:58;;;;;;;0.10;0.10;;;1.90;99.90;;;;;;5033750;28;20109;-95
2020/12/25 03:35:24;;;;;;;0.10;0.10;;;1.90;99.90;;;;;;5036134;28;20017;-95
2020/12/25 03:37:49;;;;;;;0.20;0.20;;;1.90;99.90;;;;;;5035890;28;20026;-86
2020/12/25 03:40:15;;;;;;;0.10;0.10;;;1.80;99.90;;;;;;5035458;28;20024;-92
2020/12/25 03:42:43;;;;;;;0.10;0.10;;;1.90;99.90;;;;;;5035284;28;20036;-91
2020/12/25 03:45:09;;;;;;;0.10;0.10;;;1.90;99.90;;;;;;5050096;28;20033;-90
2020/12/25 03:47:34;;;;;;;0.10;0.10;;;2.00;99.90;;;;;;5034487;28;20030;-92
2020/12/25 03:50:00;;;;;;;0.10;0.10;;;2.00;99.90;;;;;;5034346;28;20029;-93
2020/12/25 03:52:26;;;;;;;0.10;0.10;;;2.20;99.90;;;;;;5035502;28;20041;-93
2020/12/25 03:54:51;;;;;;;0.10;0.10;;;2.20;99.90;;;;;;5028381;28;20133;-93
2020/12/25 03:57:17;;;;;;;0.10;0.10;;;2.30;99.90;;;;;;5035745;28;20128;-88
2020/12/25 03:59:43;;;;;;;0.10;0.10;;;2.50;99.90;;;;;;5035657;28;20316;-86
2020/12/25 04:02:09;;;;;;;1.27;1.20;;;2.70;99.90;;;;;;5035713;28;20025;-86
2020/12/25 04:04:35;;;;;;;0.00;0.00;;;3.00;99.90;;;;;;5034662;28;20029;-87
2020/12/25 04:07:00;;;;;;;0.43;0.43;;;3.30;99.90;;;;;;5034901;28;20032;-86
2020/12/25 04:09:26;;;;;;;1.05;0.68;;;3.40;99.90;;;;;;5033290;28;20018;-84
2020/12/25 04:11:52;;;;;;;0.30;0.30;;;3.60;99.90;;;;;;5034988;28;20100;-84
2020/12/25 04:14:18;;;;;;;0.10;0.10;;;3.70;99.90;;;;;;5034259;28;20257;-88
2020/12/25 04:16:44;;;;;;;0.10;0.10;;;3.70;99.90;;;;;;5049747;28;20033;-86
2020/12/25 04:19:10;;;;;;;0.10;0.10;;;3.80;99.90;;;;;;5051854;28;20029;-91
2020/12/25 04:21:40;;;;;;;0.10;0.10;;;3.80;99.90;;;;;;5034369;28;20017;-90
2020/12/25 04:24:06;;;;;;;0.10;0.10;;;3.90;99.90;;;;;;5031120;28;20029;-88
2020/12/25 04:26:31;;;;;;;0.83;0.83;;;3.80;99.90;;;;;;5034945;28;20061;-88
2020/12/25 04:28:59;;;;;;;0.20;0.20;;;3.80;99.90;;;;;;5032846;28;20045;-88
2020/12/25 04:31:26;;;;;;;22.67;1.15;;;3.60;99.90;;;;;;5035177;28;20052;-85
2020/12/25 04:33:53;;;;;;;0.20;0.20;;;3.60;99.90;;;;;;5034089;28;20032;-82
2020/12/25 04:36:19;;;;;;;1.92;0.63;;;3.70;99.90;;;;;;5032852;28;20026;-84
2020/12/25 04:38:45;;;;;;;1.75;0.75;;;3.80;99.90;;;;;;5046728;28;20021;-80
2020/12/25 04:41:11;;;;;;;0.20;0.20;;;3.80;99.90;;;;;;5033364;28;20075;-83
2020/12/25 04:43:39;;;;;;;0.20;0.20;;;3.80;99.90;;;;;;5049620;28;20343;-88
2020/12/25 04:46:07;;;;;;;0.80;0.80;;;3.80;99.90;;;;;;5033380;28;20022;-87
2020/12/25 04:48:36;;;;;;;0.17;0.17;;;3.80;99.90;;;;;;5034594;28;20048;-82
2020/12/25 04:51:03;;;;;;;3.65;0.30;;;3.70;99.90;;;;;;5030744;28;20024;-87
2020/12/25 04:53:31;;;;;;;0.10;0.10;;;3.70;99.90;;;;;;5034485;28;20099;-91
2020/12/25 04:55:57;;;;;;;0.13;0.13;;;3.60;99.90;;;;;;5048692;28;20022;-89
2020/12/25 04:58:23;;;;;;;0.20;0.20;;;3.50;99.90;;;;;;5049374;28;20021;-87
2020/12/25 05:01:05;;;;;;;0.25;0.25;;;3.50;99.90;;;;;;5034034;28;20029;-88
2020/12/25 05:03:35;;;;;;;1.67;1.52;;;3.50;99.90;;;;;;5030871;28;20025;-91
2020/12/25 05:06:05;;;;;;;1.15;0.30;;;3.40;99.90;;;;;;5024363;28;20061;-91
2020/12/25 05:08:43;;;;;;;1.40;0.75;;;3.40;99.90;;;;;;5051288;28;20104;-91
2020/12/25 05:11:11;;;;;;;0.35;0.35;;;3.50;99.90;;;;;;5033800;28;20057;-87
2020/12/25 05:13:52;;;;;;;0.10;0.10;;;3.50;99.90;;;;;;5034186;28;20032;-88
2020/12/25 05:16:20;;;;;;;0.55;0.52;;;3.50;99.90;;;;;;5033851;28;20052;-88
2020/12/25 05:18:51;;;;;;;0.10;0.10;;;3.60;99.90;;;;;;5033008;28;20021;-84
2020/12/25 05:21:21;;;;;;;0.10;0.10;;;3.60;99.90;;;;;;5033617;28;20022;-79
2020/12/25 05:23:49;;;;;;;0.32;0.32;;;3.70;99.90;;;;;;5034990;28;20053;-82
2020/12/25 05:26:16;;;;;;;2.40;0.38;;;3.70;99.90;;;;;;5035057;28;20029;-89
2020/12/25 05:28:43;;;;;;;;;;;3.60;99.90;;;;;;5049417;28;20477;-93
2020/12/25 05:31:09;;;;;;;0.10;0.10;;;3.50;99.90;;;;;;5035381;28;19932;-84
2020/12/25 05:33:36;;;;;;;0.20;0.20;;;3.40;99.90;;;;;;5031119;28;20055;-87
2020/12/25 05:36:11;;;;;;;;;;;3.30;99.90;;;;;;5034634;28;20428;-86
2020/12/25 05:38:38;;;;;;;0.10;0.10;;;3.20;99.90;;;;;;5034688;28;19912;-86
2020/12/25 05:41:05;;;;;;;0.98;0.98;;;3.10;99.90;;;;;;5034806;28;20025;-87
2020/12/25 05:43:32;;;;;;;0.10;0.10;;;3.20;99.90;;;;;;5034140;28;20064;-89
2020/12/25 05:45:58;;;;;;;0.10;0.10;;;3.10;99.90;;;;;;5033912;28;20037;-89
2020/12/25 05:48:24;;;;;;;0.47;0.47;;;3.20;99.90;;;;;;5033559;28;20387;-86
2020/12/25 05:50:50;;;;;;;0.20;0.20;;;3.30;99.90;;;;;;5021739;28;20048;-80
2020/12/25 05:53:17;;;;;;;0.40;0.40;;;3.30;99.90;;;;;;5036819;28;21521;-86
2020/12/25 05:55:44;;;;;;;0.15;0.15;;;3.50;99.90;;;;;;5032043;28;20034;-90
2020/12/25 05:58:12;;;;;;;0.10;0.10;;;3.60;99.90;;;;;;5033092;28;20076;-88
2020/12/25 06:00:42;;;;;;;0.65;0.65;;;3.60;99.90;;;;;;5038382;28;20017;-90
2020/12/25 06:03:13;;;;;;;1.48;0.95;;;3.60;99.90;;;;;;5038620;28;20049;-89
2020/12/25 06:05:45;;;;;;;1.10;1.00;;;3.50;99.90;;;;;;5027505;28;20029;-87
2020/12/25 06:08:35;;;;;;;0.10;0.10;;;3.50;99.90;;;;;;5038072;28;20366;-90
2020/12/25 06:11:03;;;;;;;0.55;0.55;;;3.50;99.90;;;;;;5034330;28;20021;-90
2020/12/25 06:13:42;;;;;;;0.20;0.20;;;3.50;99.90;;;;;;5038193;28;20079;-85
2020/12/25 06:16:13;;;;;;;0.32;0.32;;;3.30;99.90;;;;;;5053980;28;20025;-92
2020/12/25 06:18:48;;;;;;;1.10;0.55;;;3.20;99.90;;;;;;5041605;28;20049;-88
2020/12/25 06:21:23;;;;;;;0.00;0.00;;;3.00;99.90;;;;;;5042337;28;20060;-91
2020/12/25 06:23:49;;;;;;;0.10;0.10;;;2.80;99.90;;;;;;5037281;28;20026;-88
2020/12/25 06:26:19;;;;;;;0.98;0.47;;;2.60;99.90;;;;;;5050032;28;20030;-92
2020/12/25 06:28:47;;;;;;;0.10;0.10;;;2.40;99.90;;;;;;5033602;28;20030;-92
2020/12/25 06:31:32;;;;;;;0.65;0.65;;;2.30;99.90;;;;;;5034158;28;20026;-90
2020/12/25 06:34:00;;;;;;;1.30;0.63;;;2.20;99.90;;;;;;5024279;28;20037;-92
2020/12/25 06:36:36;;;;;;;0.10;0.10;;;2.10;99.90;;;;;;5045395;23;20076;-91
2020/12/25 06:39:10;;;;;;;0.90;0.40;;;2.00;99.90;;;;;;5020784;28;20038;-90
2020/12/25 06:41:39;;;;;;;0.10;0.10;;;2.00;99.90;;;;;;5016740;28;20025;-90
2020/12/25 06:44:13;;;;;;;1.23;1.13;;;1.90;99.90;;;;;;5031885;28;20030;-92
2020/12/25 06:46:49;;;;;;;0.22;0.22;;;1.80;99.90;;;;;;5005823;28;20022;-90
2020/12/25 06:49:16;;;;;;;3.22;0.65;;;1.70;99.90;;;;;;5030643;28;20443;-90
2020/12/25 06:51:46;;;;;;;0.10;0.10;;;1.70;99.90;;;;;;5033431;28;20057;-91
2020/12/25 06:54:22;;;;;;;0.05;0.05;;;1.70;99.90;;;;;;5022940;28;20158;-92
2020/12/25 06:56:54;;;;;;;0.90;0.43;;;1.70;99.90;;;;;;5017119;28;20052;-91
2020/12/25 06:59:21;;;;;;;0.10;0.10;;;1.80;99.90;;;;;;5033934;28;20030;-91
2020/12/25 07:01:48;;;;;;;0.10;0.10;;;1.70;99.90;;;;;;5032791;28;20121;-91
2020/12/25 07:04:27;;;;;;;;;;;1.70;99.90;;;;;;5033614;28;20075;-92
2020/12/25 07:06:55;;;;;;;0.70;0.55;;;1.70;99.90;;;;;;5016774;28;19906;-91
2020/12/25 07:09:21;;;;;;;2.25;0.57;;;1.80;99.90;;;;;;5046181;28;20021;-88
2020/12/25 07:11:51;;;;;;;0.67;0.60;;;1.90;99.90;;;;;;5021612;28;20370;-89
2020/12/25 07:14:17;;;;;;;9.10;0.73;;;1.90;99.90;;;;;;5023131;28;20264;-91
2020/12/25 07:16:43;;;;;;;0.27;0.27;;;1.90;99.90;;;;;;5015719;28;20393;-89
2020/12/25 07:19:09;;;;;;;0.50;0.50;;;1.80;99.90;;;;;;5033051;28;20323;-90
2020/12/25 07:21:35;;;;;;;0.00;0.00;;;1.80;99.90;;;;;;5019272;28;20021;-90
2020/12/25 07:24:02;;;;;;;0.10;0.10;;;1.80;99.90;;;;;;5033130;28;20034;-90
2020/12/25 07:26:28;;;;;;;0.20;0.20;;;1.80;99.90;;;;;;5016717;28;20038;-90
2020/12/25 07:28:56;;;;;;;0.22;0.22;;;1.80;99.90;;;;;;5016854;28;20114;-90
2020/12/25 07:31:22;;;;;;;0.10;0.10;;;1.80;99.90;;;;;;5016068;28;20037;-90
2020/12/25 07:33:55;;;;;;;0.10;0.10;;;1.70;99.90;;;;;;5008297;28;20079;-90
2020/12/25 07:36:23;;;;;;;0.10;0.10;;;1.60;99.90;;;;;;5052242;28;20436;-91
2020/12/25 07:39:02;;;;;;;0.10;0.10;;;1.60;99.90;;;;;;5011666;28;20412;-91
2020/12/25 07:41:28;;;;;;;0.10;0.10;;;1.50;99.90;;;;;;5009994;28;20362;-91
2020/12/25 07:43:57;;;;;;;1.27;1.17;;;1.50;99.90;;;;;;5015629;28;20049;-90
2020/12/25 07:46:24;;;;;;;2.60;0.90;;;1.50;99.90;;;;;;5015628;28;20054;-91
2020/12/25 07:48:55;;;;;;;0.10;0.10;;;1.50;99.90;;;;;;5031897;28;20038;-87
2020/12/25 07:51:21;;;;;;;0.10;0.10;;;1.50;99.90;;;;;;5011532;28;20026;-90
2020/12/25 07:53:59;;;;;;;15.00;1.33;;;1.60;99.90;;;;;;5011807;28;20084;-89
2020/12/25 07:56:35;;;;;;;24.13;0.63;;;1.60;99.90;;;;;;5011221;28;20026;-89
2020/12/25 07:59:03;;;;;;;1.27;0.63;;;1.60;99.90;;;;;;5031561;28;20084;-89
2020/12/25 08:01:30;;;;;;;0.10;0.10;;;1.70;99.90;;;;;;5040127;28;20064;-88
2020/12/25 08:04:01;;;;;;;0.40;0.40;;;1.70;99.90;;;;;;5042157;28;20017;-88
2020/12/25 08:06:28;;;;;;;0.28;0.28;;;1.70;99.90;;;;;;5036343;28;20022;-88
2020/12/25 08:08:59;;;;;;;0.10;0.10;;;1.80;99.90;;;;;;5020522;28;20089;-87
2020/12/25 08:11:26;;;;;;;0.30;0.30;;;1.90;99.90;;;;;;5038068;28;20061;-91
2020/12/25 08:13:54;;;;;;;0.20;0.20;;;2.00;99.90;;;;;;5042731;28;20025;-90
2020/12/25 08:16:20;;;;;;;0.38;0.38;;;2.20;99.90;;;;;;5038819;28;20348;-88
2020/12/25 08:18:50;;;;;;;0.28;0.28;;;2.20;99.90;;;;;;5041410;28;20117;-89
2020/12/25 08:21:17;;;;;;;0.10;0.10;;;2.20;99.90;;;;;;5039851;28;20033;-92
2020/12/25 08:23:43;;;;;;;1.80;1.08;;;2.30;99.90;;;;;;5014475;28;20029;-92
2020/12/25 08:26:09;;;;;;;1.40;1.13;;;2.40;99.90;;;;;;5037003;28;20089;-88
2020/12/25 08:28:34;;;;;;;0.20;0.20;;;2.50;99.90;;;;;;5025282;28;20034;-90
2020/12/25 08:31:17;;;;;;;0.80;0.80;;;2.60;99.90;;;;;;5036385;28;20027;-88
2020/12/25 08:33:56;;;;;;;0.10;0.10;;;2.60;99.90;;;;;;5043026;28;20075;-90
2020/12/25 08:36:27;;;;;;;0.28;0.28;;;2.60;99.90;;;;;;5040989;28;20042;-90
2020/12/25 08:38:53;;;;;;;1.02;1.02;;;2.70;99.90;;;;;;5025582;28;20116;-88
2020/12/25 08:41:24;;;;;;;0.10;0.10;;;2.70;99.90;;;;;;5026803;28;20054;-90
2020/12/25 08:43:50;;;;;;;0.05;0.05;;;2.60;99.90;;;;;;5023195;28;20038;-84
2020/12/25 08:46:21;;;;;;;0.10;0.10;;;2.50;99.90;;;;;;5024832;28;20029;-91
2020/12/25 08:48:49;;;;;;;0.10;0.10;;;2.50;99.90;;;;;;5016814;28;20034;-91
2020/12/25 08:51:16;;;;;;;0.43;0.43;;;2.40;99.90;;;;;;5045431;28;20392;-91
2020/12/25 08:53:54;;;;;;;;;;;2.50;99.90;;;;;;5021427;28;20306;-89
2020/12/25 08:56:25;;;;;;;0.10;0.10;;;2.50;99.90;;;;;;5025811;28;20275;-90
2020/12/25 08:58:59;;;;;;;2.17;0.47;;;2.60;99.90;;;;;;5030653;28;20305;-91
2020/12/25 09:01:27;;;;;;;0.22;0.22;;;2.50;99.90;;;;;;5011273;28;20025;-92
2020/12/25 09:03:53;;;;;;;0.40;0.40;;;2.60;99.90;;;;;;5039291;28;20323;-92
2020/12/25 09:06:19;;;;;;;2.05;0.93;;;2.50;99.90;;;;;;5013602;28;20026;-91
2020/12/25 09:08:45;;;;;;;0.10;0.10;;;2.60;99.90;;;;;;5008849;28;20386;-91
2020/12/25 09:11:15;;;;;;;17.25;1.00;;;2.60;99.90;;;;;;5036050;28;20045;-90
2020/12/25 09:13:42;;;;;;;0.10;0.10;;;2.70;99.90;;;;;;5042332;28;20087;-89
2020/12/25 09:16:09;;;;;;;0.20;0.20;;;2.70;99.90;;;;;;5017649;28;20022;-92
2020/12/25 09:18:36;;;;;;;0.10;0.10;;;2.70;99.90;;;;;;5033715;28;20052;-93
2020/12/25 09:21:02;;;;;;;0.50;0.50;;;2.80;99.90;;;;;;5037176;28;20026;-88
2020/12/25 09:23:28;;;;;;;0.80;0.70;;;2.90;99.90;;;;;;5015143;28;20104;-86
2020/12/25 09:25:54;;;;;;;0.10;0.10;;;3.00;99.90;;;;;;5017365;28;20132;-87
2020/12/25 09:28:20;;;;;;;0.10;0.10;;;3.10;99.90;;;;;;5038509;28;20033;-87
2020/12/25 09:30:46;;;;;;;0.30;0.30;;;3.10;99.90;;;;;;5023865;28;20030;-87
2020/12/25 09:33:11;;;;;;;0.10;0.10;;;3.20;99.90;;;;;;5042818;28;20103;-86
2020/12/25 09:35:37;;;;;;;0.10;0.10;;;3.20;99.90;;;;;;5037134;28;20038;-87
2020/12/25 09:38:03;;;;;;;0.10;0.10;;;3.20;99.90;;;;;;5041792;28;20025;-87
2020/12/25 09:40:29;;;;;;;0.10;0.10;;;3.20;99.90;;;;;;5044022;28;20293;-86
2020/12/25 09:42:54;;;;;;;0.10;0.10;;;3.30;99.90;;;;;;5041780;28;20029;-88
2020/12/25 09:45:20;;;;;;;0.10;0.10;;;3.30;99.90;;;;;;5016285;28;20034;-87
2020/12/25 09:47:46;;;;;;;0.10;0.10;;;3.40;99.90;;;;;;5032888;28;20030;-87
2020/12/25 09:50:11;;;;;;;0.10;0.10;;;3.50;99.90;;;;;;5027051;28;20099;-87
2020/12/25 09:52:37;;;;;;;0.10;0.10;;;3.60;99.90;;;;;;5033124;28;20117;-84
2020/12/25 09:55:04;;;;;;;25.67;0.50;;;3.60;99.90;;;;;;5017589;28;20018;-86
2020/12/25 09:57:29;;;;;;;0.63;0.40;;;3.70;99.90;;;;;;5037727;28;20026;-87
2020/12/25 09:59:55;;;;;;;0.60;0.60;;;3.80;99.90;;;;;;5035131;28;20454;-84
2020/12/25 10:02:21;;;;;;;0.30;0.30;;;3.90;99.90;;;;;;5016089;28;20428;-94
2020/12/25 10:04:47;;;;;;;1.15;1.02;;;4.00;99.90;;;;;;5033163;28;20065;-85
2020/12/25 10:07:13;;;;;;;0.27;0.27;;;4.10;99.90;;;;;;5010997;28;20050;-84
2020/12/25 10:09:39;;;;;;;0.10;0.10;;;4.20;99.90;;;;;;5017931;28;20026;-83
2020/12/25 10:12:05;;;;;;;0.10;0.10;;;4.20;99.90;;;;;;5034917;28;20143;-84
2020/12/25 10:14:30;;;;;;;1.60;1.17;;;4.20;99.90;;;;;;5030525;28;20040;-87
2020/12/25 10:16:56;;;;;;;0.10;0.10;;;4.20;99.90;;;;;;5020294;28;20054;-84
2020/12/25 10:19:22;;;;;;;0.87;0.67;;;4.30;99.90;;;;;;5041099;28;20439;-82
2020/12/25 10:21:51;;;;;;;5.00;1.20;;;4.40;99.90;;;;;;5026235;28;20021;-82
2020/12/25 10:24:17;;;;;;;1.08;0.47;;;4.50;99.90;;;;;;5016352;28;20032;-87
2020/12/25 10:26:47;;;;;;;0.07;0.07;;;4.60;99.90;;;;;;5036360;28;20084;-82
2020/12/25 10:29:13;;;;;;;0.65;0.65;;;4.70;99.90;;;;;;5031083;28;20050;-77
2020/12/25 10:31:39;;;;;;;0.10;0.10;;;4.80;99.90;;;;;;5031869;28;20045;-86
2020/12/25 10:34:04;;;;;;;0.13;0.13;;;4.90;99.90;;;;;;5026571;28;20030;-82
2020/12/25 10:36:30;;;;;;;1.60;0.80;;;4.90;99.90;;;;;;5026747;28;20038;-83
2020/12/25 10:38:56;;;;;;;3.40;0.57;;;4.90;99.90;;;;;;5026942;28;20021;-87
2020/12/25 10:41:29;;;;;;;1.35;0.85;;;4.90;99.90;;;;;;5022662;28;20029;-82
2020/12/25 10:43:55;;;;;;;0.15;0.15;;;4.90;99.90;;;;;;5047453;28;20028;-88
2020/12/25 10:46:20;;;;;;;0.28;0.28;;;4.90;99.90;;;;;;5039379;28;20324;-85
2020/12/25 10:48:46;;;;;;;0.77;0.77;;;5.00;99.90;;;;;;5028953;28;20093;-85
2020/12/25 10:51:12;;;;;;;0.00;0.00;;;5.00;99.90;;;;;;5040140;28;20085;-81
2020/12/25 10:53:39;;;;;;;5.27;0.87;;;5.10;99.90;;;;;;5041518;28;20029;-85
2020/12/25 10:56:05;;;;;;;0.10;0.10;;;5.10;99.90;;;;;;5044748;28;20090;-81
2020/12/25 10:58:30;;;;;;;0.52;0.52;;;5.10;99.90;;;;;;5040637;28;20026;-87
2020/12/25 11:00:56;;;;;;;0.03;0.03;;;5.20;99.90;;;;;;5018564;28;20022;-85
2020/12/25 11:03:22;;;;;;;0.77;0.77;;;5.20;99.90;;;;;;5025154;28;20028;-86
2020/12/25 11:05:48;;;;;;;0.23;0.23;;;5.30;99.90;;;;;;5009082;28;20025;-83
2020/12/25 11:08:14;;;;;;;0.40;0.40;;;5.30;99.90;;;;;;5019075;28;20046;-89
2020/12/25 11:10:44;;;;;;;0.17;0.17;;;5.30;99.90;;;;;;5013660;28;20062;-86
2020/12/25 11:13:10;;;;;;;0.08;0.08;;;5.30;99.90;;;;;;5033891;28;20026;-86
2020/12/25 11:15:38;;;;;;;0.07;0.07;;;5.40;99.90;;;;;;5012428;28;20037;-81
2020/12/25 11:18:04;;;;;;;1.25;0.52;;;5.50;99.90;;;;;;5015432;28;20030;-87
2020/12/25 11:20:30;;;;;;;16.42;1.00;;;5.50;99.90;;;;;;5015143;28;20032;-83
2020/12/25 11:22:55;;;;;;;0.73;0.73;;;5.60;99.90;;;;;;5029499;28;20084;-84
2020/12/25 11:25:21;;;;;;;1.60;0.60;;;5.70;99.90;;;;;;5031384;28;20491;-82
2020/12/25 11:27:47;;;;;;;0.47;0.07;;;5.70;99.90;;;;;;5031181;28;20041;-80
2020/12/25 11:30:12;;;;;;;4.57;1.00;;;5.60;99.90;;;;;;5015373;28;20040;-82
2020/12/25 11:32:38;;;;;;;0.67;0.60;;;5.50;99.90;;;;;;5032184;28;20029;-87
2020/12/25 11:35:04;;;;;;;0.80;0.27;;;5.60;99.90;;;;;;5034850;28;20030;-83
2020/12/25 11:37:30;;;;;;;0.10;0.10;;;5.60;99.90;;;;;;5030148;28;20052;-82
2020/12/25 11:39:56;;;;;;;1.73;0.77;;;5.70;99.90;;;;;;5036210;28;20032;-84
2020/12/25 11:42:21;;;;;;;0.13;0.13;;;5.80;99.90;;;;;;5016221;28;20343;-84
2020/12/25 11:44:47;;;;;;;1.25;0.70;;;5.80;99.90;;;;;;5016880;28;20091;-86
2020/12/25 11:47:13;;;;;;;0.30;0.30;;;5.90;99.90;;;;;;5014056;28;20037;-85
2020/12/25 11:49:39;;;;;;;0.10;0.10;;;5.90;99.90;;;;;;5023042;28;20032;-81
2020/12/25 11:52:04;;;;;;;0.37;0.37;;;5.80;99.90;;;;;;5027144;28;20107;-83
2020/12/25 11:54:30;;;;;;;0.47;0.47;;;5.80;99.90;;;;;;5020646;28;20034;-84
2020/12/25 11:56:56;;;;;;;0.45;0.38;;;5.70;99.90;;;;;;5039669;28;20033;-83
2020/12/25 11:59:21;;;;;;;2.33;0.47;;;5.60;99.90;;;;;;5026397;28;20397;-86
2020/12/25 12:01:47;;;;;;;0.07;0.07;;;5.60;99.90;;;;;;5035447;28;20037;-86
2020/12/25 12:04:13;;;;;;;0.10;0.10;;;5.60;99.90;;;;;;5038116;28;20112;-87
2020/12/25 12:06:39;;;;;;;2.03;0.67;;;5.50;99.90;;;;;;5028092;28;20022;-84
2020/12/25 12:09:04;;;;;;;0.10;0.10;;;5.50;99.90;;;;;;5045157;28;20044;-83
2020/12/25 12:11:30;;;;;;;0.10;0.10;;;5.50;99.90;;;;;;5037827;28;20022;-85
2020/12/25 12:13:56;;;;;;;0.43;0.43;;;5.50;99.90;;;;;;5040776;28;20293;-84
2020/12/25 12:16:24;;;;;;;0.47;0.47;;;5.40;99.90;;;;;;5020203;28;20022;-82
2020/12/25 12:18:51;;;;;;;1.85;1.27;;;5.30;99.90;;;;;;5023306;28;20080;-84
2020/12/25 12:21:18;;;;;;;5.07;1.13;;;5.40;99.90;;;;;;5019784;28;20024;-87
2020/12/25 12:23:44;;;;;;;0.00;0.00;;;5.40;99.90;;;;;;5025863;28;20034;-85
2020/12/25 12:26:10;;;;;;;0.43;0.43;;;5.40;99.90;;;;;;5041202;28;20033;-81
2020/12/25 12:28:36;;;;;;;1.90;0.90;;;5.40;99.90;;;;;;5015131;28;20409;-85
2020/12/25 12:31:02;;;;;;;0.00;0.00;;;5.40;99.90;;;;;;5046119;28;20404;-81
2020/12/25 12:33:28;;;;;;;0.17;0.17;;;5.40;99.90;;;;;;5042222;28;20116;-83
2020/12/25 12:35:54;;;;;;;0.10;0.10;;;5.50;99.90;;;;;;5043813;28;20128;-80
2020/12/25 12:38:20;;;;;;;0.00;0.00;;;5.60;99.90;;;;;;5029733;28;20392;-80
2020/12/25 12:40:45;;;;;;;0.07;0.07;;;5.70;99.90;;;;;;5038871;28;20026;-79
2020/12/25 12:43:11;;;;;;;0.10;0.10;;;5.70;99.90;;;;;;5024092;28;20037;-82
2020/12/25 12:45:37;;;;;;;0.10;0.10;;;5.60;99.90;;;;;;5032500;28;20199;-80
2020/12/25 12:48:02;;;;;;;0.10;0.10;;;5.50;99.90;;;;;;5029126;28;20033;-81
2020/12/25 12:50:28;;;;;;;0.00;0.00;;;5.30;99.90;;;;;;5042207;28;20054;-82
2020/12/25 12:52:54;;;;;;;0.10;0.10;;;5.10;99.90;;;;;;5015799;28;20108;-81
2020/12/25 12:55:19;;;;;;;0.38;0.38;;;5.00;99.90;;;;;;5027030;28;20764;-83
2020/12/25 12:57:45;;;;;;;0.10;0.10;;;4.90;99.90;;;;;;5016792;28;20030;-87